createdAt,value
2022-10-03T00:02:41.856Z,100730.31
2022-10-03T00:05:36.212Z,100740.34
2022-10-03T00:08:39.995Z,100736.06
2022-10-03T00:11:21.716Z,100734.00
2022-10-03T00:13:48.233Z,100743.00
2022-10-03T00:16:36.538Z,100739.97
2022-10-03T00:19:40.830Z,100750.31
2022-10-03T00:22:28.913Z,100755.25
2022-10-03T00:25:16.941Z,100746.03
2022-10-03T00:27:54.233Z,100749.56
2022-10-03T00:30:25.093Z,100762.88
2022-10-03T00:33:03.193Z,100763.28
2022-10-03T00:35:54.131Z,100766.63
2022-10-03T00:38:54.987Z,100757.53
2022-10-03T00:41:46.290Z,100752.63
2022-10-03T00:44:19.032Z,100761.47
2022-10-03T00:47:00.240Z,100766.06
2022-10-03T00:49:50.050Z,100778.19
2022-10-03T00:52:44.506Z,100774.84
2022-10-03T00:55:55.186Z,100779.44
2022-10-03T00:58:30.938Z,100771.59
2022-10-03T01:01:20.807Z,100778.47
2022-10-03T01:04:00.818Z,100777.84
2022-10-03T01:06:52.074Z,100789.41
2022-10-03T01:09:36.834Z,100786.25
2022-10-03T01:12:39.023Z,100786.44
2022-10-03T01:15:08.551Z,100803.88
2022-10-03T01:17:48.028Z,100793.00
2022-10-03T01:20:20.405Z,100803.50
2022-10-03T01:23:14.925Z,100807.91
2022-10-03T01:26:04.809Z,100806.78
2022-10-03T01:28:55.737Z,100805.94
2022-10-03T01:31:52.798Z,100819.06
2022-10-03T01:34:48.429Z,100813.56
2022-10-03T01:37:29.481Z,100817.72
2022-10-03T01:40:08.857Z,100819.53
2022-10-03T01:42:39.055Z,100824.53
2022-10-03T01:45:15.248Z,100830.50
2022-10-03T01:47:51.443Z,100824.34
2022-10-03T01:50:17.981Z,100828.53
2022-10-03T01:53:04.639Z,100826.66
2022-10-03T01:55:48.744Z,100827.34
2022-10-03T01:58:29.364Z,100828.03
2022-10-03T02:01:07.401Z,100834.16
2022-10-03T02:03:47.276Z,100827.34
2022-10-03T02:06:17.429Z,100835.38
2022-10-03T02:08:55.299Z,100843.50
2022-10-03T02:12:05.075Z,100840.31
2022-10-03T02:14:34.662Z,100837.09
2022-10-03T02:17:30.700Z,100844.97
2022-10-03T02:20:08.679Z,100846.81
2022-10-03T02:22:42.622Z,100852.03
2022-10-03T02:25:24.409Z,100848.66
2022-10-03T02:28:11.983Z,100851.28
2022-10-03T02:31:15.873Z,100859.50
2022-10-03T02:33:54.170Z,100861.34
2022-10-03T02:36:48.166Z,100873.34
2022-10-03T02:39:39.085Z,100876.88
2022-10-03T02:42:41.517Z,100880.72
2022-10-03T02:45:32.930Z,100881.72
2022-10-03T02:48:38.560Z,100878.19
2022-10-03T02:51:18.031Z,100890.22
2022-10-03T02:53:48.409Z,100879.69
2022-10-03T02:56:30.004Z,100893.81
2022-10-03T02:59:21.514Z,100892.72
2022-10-03T03:01:51.174Z,100897.91
2022-10-03T03:04:29.903Z,100897.16
2022-10-03T03:07:16.645Z,100901.38
2022-10-03T03:10:03.440Z,100896.91
2022-10-03T03:13:01.003Z,100907.22
2022-10-03T03:16:09.023Z,100910.16
2022-10-03T03:18:58.849Z,100917.72
2022-10-03T03:21:50.312Z,100914.44
2022-10-03T03:24:33.347Z,100922.56
2022-10-03T03:27:18.200Z,100913.41
2022-10-03T03:30:03.075Z,100920.97
2022-10-03T03:32:47.271Z,100922.81
2022-10-03T03:35:48.253Z,100921.41
2022-10-03T03:38:52.073Z,100921.69
2022-10-03T03:41:18.618Z,100934.56
2022-10-03T03:43:56.696Z,100932.69
2022-10-03T03:46:38.670Z,100943.41
2022-10-03T03:49:16.568Z,100943.50
2022-10-03T03:51:57.930Z,100949.56
2022-10-03T03:54:38.009Z,100939.94
2022-10-03T03:57:35.540Z,100949.34
2022-10-03T04:00:08.088Z,100942.75
2022-10-03T04:02:38.376Z,100949.06
2022-10-03T04:05:08.424Z,100946.38
2022-10-03T04:07:50.415Z,100951.59
2022-10-03T04:10:42.294Z,100946.47
2022-10-03T04:13:29.053Z,100955.31
2022-10-03T04:16:43.425Z,100963.78
2022-10-03T04:19:31.844Z,100960.16
2022-10-03T04:22:26.904Z,100961.56
2022-10-03T04:25:05.453Z,100963.81
2022-10-03T04:28:10.873Z,100968.84
2022-10-03T04:30:57.886Z,100974.59
2022-10-03T04:33:43.284Z,100971.16
2022-10-03T04:36:18.832Z,100976.28
2022-10-03T04:39:06.963Z,100968.47
2022-10-03T04:41:43.266Z,100966.88
2022-10-03T04:44:28.747Z,100959.97
2022-10-03T04:47:02.816Z,100970.97
2022-10-03T04:49:56.273Z,100967.59
2022-10-03T04:52:39.457Z,100966.97
2022-10-03T04:55:32.681Z,100972.06
2022-10-03T04:58:22.925Z,100968.09
2022-10-03T05:01:15.558Z,100970.69
2022-10-03T05:03:43.455Z,100981.19
2022-10-03T05:06:19.464Z,100981.88
2022-10-03T05:09:01.564Z,100987.91
2022-10-03T05:11:43.370Z,100983.81
2022-10-03T05:14:12.625Z,100991.63
2022-10-03T05:16:43.037Z,101001.69
2022-10-03T05:19:29.548Z,100996.94
2022-10-03T05:22:19.376Z,101001.50
2022-10-03T05:25:16.032Z,101008.59
2022-10-03T05:27:59.151Z,101005.06
2022-10-03T05:30:53.359Z,101010.19
2022-10-03T05:33:39.540Z,101021.38
2022-10-03T05:36:34.833Z,101017.25
2022-10-03T05:39:19.752Z,101018.28
2022-10-03T05:42:17.784Z,101026.00
2022-10-03T05:44:45.424Z,101024.16
2022-10-03T05:47:46.311Z,101022.00
2022-10-03T05:50:27.734Z,101034.22
2022-10-03T05:53:10.843Z,101032.81
2022-10-03T05:55:49.425Z,101043.72
2022-10-03T05:58:20.136Z,101042.88
2022-10-03T06:01:08.690Z,101049.47
2022-10-03T06:03:59.329Z,101048.38
2022-10-03T06:06:46.780Z,101051.28
2022-10-03T06:09:40.508Z,101058.91
2022-10-03T06:12:22.386Z,101054.97
2022-10-03T06:15:03.211Z,101057.94
2022-10-03T06:17:45.251Z,101059.53
2022-10-03T06:20:48.957Z,101059.25
2022-10-03T06:23:42.378Z,101061.66
2022-10-03T06:26:27.009Z,101067.91
2022-10-03T06:29:15.433Z,101075.34
2022-10-03T06:32:01.024Z,101067.34
2022-10-03T06:34:39.509Z,101069.19
2022-10-03T06:37:53.745Z,101079.84
2022-10-03T06:40:32.303Z,101066.50
2022-10-03T06:43:11.362Z,101072.00
2022-10-03T06:45:52.951Z,101072.34
2022-10-03T06:48:36.252Z,101079.84
2022-10-03T06:51:40.630Z,101085.09
2022-10-03T06:54:29.238Z,101092.78
2022-10-03T06:57:23.562Z,101084.28
2022-10-03T07:00:06.616Z,101092.88
2022-10-03T07:03:18.966Z,101090.78
2022-10-03T07:05:48.093Z,101090.44
2022-10-03T07:08:30.268Z,101093.34
2022-10-03T07:11:26.802Z,101102.00
2022-10-03T07:14:38.813Z,101099.09
2022-10-03T07:17:28.202Z,101101.41
2022-10-03T07:20:08.518Z,101096.69
2022-10-03T07:22:59.025Z,101103.94
2022-10-03T07:25:33.145Z,101110.94
2022-10-03T07:28:17.949Z,101115.56
2022-10-03T07:30:59.688Z,101112.38
2022-10-03T07:33:52.864Z,101117.63
2022-10-03T07:37:11.557Z,101108.56
2022-10-03T07:39:45.349Z,101128.88
2022-10-03T07:42:46.945Z,101116.19
2022-10-03T07:45:30.310Z,101134.38
2022-10-03T07:48:21.339Z,101127.97
2022-10-03T07:51:02.968Z,101128.19
2022-10-03T07:54:01.255Z,101130.78
2022-10-03T07:56:45.766Z,101128.91
2022-10-03T07:59:12.290Z,101134.47
2022-10-03T08:01:47.807Z,101135.59
2022-10-03T08:04:39.018Z,101140.09
2022-10-03T08:07:09.264Z,101133.16
2022-10-03T08:09:55.270Z,101125.97
2022-10-03T08:12:44.172Z,101147.94
2022-10-03T08:15:22.601Z,101135.41
2022-10-03T08:17:58.243Z,101145.75
2022-10-03T08:20:49.083Z,101145.13
2022-10-03T08:23:54.027Z,101144.19
2022-10-03T08:26:50.114Z,101155.19
2022-10-03T08:29:38.129Z,101158.41
2022-10-03T08:32:41.848Z,101156.22
2022-10-03T08:35:37.481Z,101158.97
2022-10-03T08:38:24.978Z,101151.19
2022-10-03T08:41:15.690Z,101155.28
2022-10-03T08:44:19.866Z,101164.50
2022-10-03T08:46:52.585Z,101158.34
2022-10-03T08:49:51.773Z,101162.09
2022-10-03T08:52:28.076Z,101165.34
2022-10-03T08:55:06.159Z,101160.22
2022-10-03T08:57:57.273Z,101169.09
2022-10-03T09:00:52.799Z,101161.97
2022-10-03T09:03:40.521Z,101154.69
2022-10-03T09:06:31.009Z,101166.28
2022-10-03T09:09:00.407Z,101147.88
2022-10-03T09:11:49.621Z,101140.03
2022-10-03T09:14:21.988Z,101152.84
2022-10-03T09:17:09.908Z,101141.13
2022-10-03T09:20:04.344Z,101152.63
2022-10-03T09:22:55.980Z,101161.94
2022-10-03T09:25:58.054Z,101157.25
2022-10-03T09:28:32.073Z,101148.75
2022-10-03T09:31:19.300Z,101144.47
2022-10-03T09:33:51.801Z,101149.44
2022-10-03T09:36:27.486Z,101142.75
2022-10-03T09:39:12.863Z,101155.16
2022-10-03T09:42:01.944Z,101152.69
2022-10-03T09:44:53.099Z,101164.84
2022-10-03T09:47:42.901Z,101165.28
2022-10-03T09:50:28.645Z,101171.06
2022-10-03T09:53:24.687Z,101168.84
2022-10-03T09:56:09.679Z,101169.31
2022-10-03T09:58:44.954Z,101161.44
2022-10-03T10:01:29.537Z,101154.38
2022-10-03T10:04:53.634Z,101172.19
2022-10-03T10:07:48.318Z,101171.38
2022-10-03T10:10:18.371Z,101183.53
2022-10-03T10:12:59.916Z,101169.25
2022-10-03T10:15:47.461Z,101166.28
2022-10-03T10:18:29.314Z,101168.06
2022-10-03T10:21:16.356Z,101172.63
2022-10-03T10:24:07.515Z,101189.28
2022-10-03T10:27:17.656Z,101174.00
2022-10-03T10:30:22.023Z,101174.72
2022-10-03T10:33:27.297Z,101164.44
2022-10-03T10:35:53.865Z,101182.22
2022-10-03T10:38:30.648Z,101174.78
2022-10-03T10:41:12.712Z,101177.81
2022-10-03T10:43:58.238Z,101183.88
2022-10-03T10:46:42.352Z,101188.34
2022-10-03T10:49:15.139Z,101175.84
2022-10-03T10:52:03.330Z,101172.63
2022-10-03T10:54:49.074Z,101166.25
2022-10-03T10:57:24.137Z,101162.88
2022-10-03T11:00:21.809Z,101182.47
2022-10-03T11:03:26.036Z,101179.03
2022-10-03T11:06:11.550Z,101174.72
2022-10-03T11:08:56.843Z,101179.63
2022-10-03T11:12:01.530Z,101178.28
2022-10-03T11:14:35.391Z,101183.91
2022-10-03T11:17:04.620Z,101176.56
2022-10-03T11:19:49.774Z,101175.16
2022-10-03T11:22:41.380Z,101178.91
2022-10-03T11:25:47.977Z,101159.97
2022-10-03T11:28:42.951Z,101201.03
2022-10-03T11:31:46.480Z,101177.91
2022-10-03T11:34:48.060Z,101172.16
2022-10-03T11:37:33.208Z,101178.97
2022-10-03T11:40:47.401Z,101179.09
2022-10-03T11:43:34.903Z,101165.78
2022-10-03T11:46:13.681Z,101168.72
2022-10-03T11:48:52.016Z,101170.50
2022-10-03T11:51:43.660Z,101168.25
2022-10-03T11:54:32.420Z,101163.41
2022-10-03T11:57:08.691Z,101176.28
2022-10-03T11:59:44.750Z,101165.19
2022-10-03T12:02:16.434Z,101171.06
2022-10-03T12:04:59.798Z,101179.78
2022-10-03T12:08:22.905Z,101186.38
2022-10-03T12:11:14.154Z,101186.69
2022-10-03T12:14:10.925Z,101181.84
2022-10-03T12:16:44.592Z,101173.44
2022-10-03T12:19:30.936Z,101184.47
2022-10-03T12:22:07.389Z,101174.34
2022-10-03T12:24:37.711Z,101184.06
2022-10-03T12:27:10.019Z,101177.97
2022-10-03T12:29:45.919Z,101167.47
2022-10-03T12:32:40.074Z,101181.25
2022-10-03T12:35:44.214Z,101168.81
2022-10-03T12:38:29.617Z,101176.56
2022-10-03T12:41:05.393Z,101177.53
2022-10-03T12:43:43.885Z,101163.09
2022-10-03T12:46:45.757Z,101161.56
2022-10-03T12:49:17.872Z,101181.88
2022-10-03T12:52:01.089Z,101171.50
2022-10-03T12:54:53.343Z,101170.75
2022-10-03T12:57:47.846Z,101196.72
2022-10-03T13:00:24.096Z,101180.28
2022-10-03T13:02:58.220Z,101193.91
2022-10-03T13:05:40.579Z,101188.91
2022-10-03T13:08:37.428Z,101198.19
2022-10-03T13:11:35.647Z,101177.69
2022-10-03T13:14:28.220Z,101178.13
2022-10-03T13:17:09.881Z,101174.44
2022-10-03T13:19:55.330Z,101184.09
2022-10-03T13:22:29.158Z,101179.91
2022-10-03T13:25:02.184Z,101182.28
2022-10-03T13:27:40.721Z,101191.00
2022-10-03T13:30:16.653Z,101189.84
2022-10-03T13:32:49.728Z,101193.09
2022-10-03T13:35:58.222Z,101183.69
2022-10-03T13:38:49.059Z,101195.28
2022-10-03T13:41:42.234Z,101192.06
2022-10-03T13:44:24.069Z,101198.94
2022-10-03T13:46:57.160Z,101219.66
2022-10-03T13:49:34.530Z,101204.81
2022-10-03T13:52:16.446Z,101230.34
2022-10-03T13:55:00.939Z,101201.09
2022-10-03T13:57:35.657Z,101201.66
2022-10-03T14:00:12.883Z,101214.03
2022-10-03T14:03:21.441Z,101206.78
2022-10-03T14:06:15.095Z,101224.09
2022-10-03T14:09:16.573Z,101201.34
2022-10-03T14:11:50.245Z,101215.91
2022-10-03T14:14:41.906Z,101215.13
2022-10-03T14:17:20.602Z,101204.38
2022-10-03T14:20:06.359Z,101209.41
2022-10-03T14:22:42.224Z,101222.19
2022-10-03T14:25:22.516Z,101188.63
2022-10-03T14:27:54.391Z,101205.38
2022-10-03T14:31:05.114Z,101215.84
2022-10-03T14:33:38.785Z,101198.03
2022-10-03T14:36:29.386Z,101207.03
2022-10-03T14:39:22.825Z,101216.78
2022-10-03T14:41:52.507Z,101205.28
2022-10-03T14:44:22.825Z,101193.13
2022-10-03T14:47:10.305Z,101208.06
2022-10-03T14:49:54.862Z,101188.63
2022-10-03T14:52:42.807Z,101180.56
2022-10-03T14:55:18.969Z,101184.69
2022-10-03T14:58:11.434Z,101199.97
2022-10-03T15:01:13.477Z,101194.09
2022-10-03T15:04:07.848Z,101195.78
2022-10-03T15:06:46.257Z,101193.03
2022-10-03T15:09:25.174Z,101191.03
2022-10-03T15:12:22.367Z,101197.59
2022-10-03T15:15:01.589Z,101201.75
2022-10-03T15:17:31.675Z,101197.25
2022-10-03T15:20:01.402Z,101191.06
2022-10-03T15:22:37.793Z,101192.94
2022-10-03T15:25:18.512Z,101187.72
2022-10-03T15:27:54.112Z,101197.97
2022-10-03T15:30:33.805Z,101195.44
2022-10-03T15:33:15.538Z,101197.44
2022-10-03T15:35:48.337Z,101194.31
2022-10-03T15:38:18.320Z,101193.69
2022-10-03T15:41:13.485Z,101197.44
2022-10-03T15:44:00.721Z,101194.16
2022-10-03T15:46:43.387Z,101203.63
2022-10-03T15:49:24.693Z,101203.81
2022-10-03T15:51:53.100Z,101204.94
2022-10-03T15:54:26.353Z,101220.66
2022-10-03T15:57:03.382Z,101197.41
2022-10-03T15:59:37.057Z,101208.81
2022-10-03T16:02:19.132Z,101199.38
2022-10-03T16:04:47.841Z,101192.88
2022-10-03T16:07:46.110Z,101203.22
2022-10-03T16:10:14.677Z,101206.97
2022-10-03T16:12:56.452Z,101203.00
2022-10-03T16:15:49.308Z,101199.16
2022-10-03T16:18:18.875Z,101215.06
2022-10-03T16:20:56.753Z,101216.81
2022-10-03T16:23:37.743Z,101204.13
2022-10-03T16:26:12.957Z,101210.31
2022-10-03T16:28:50.653Z,101209.75
2022-10-03T16:31:30.187Z,101205.88
2022-10-03T16:34:06.765Z,101211.84
2022-10-03T16:36:42.781Z,101209.22
2022-10-03T16:39:25.088Z,101213.22
2022-10-03T16:41:56.898Z,101208.19
2022-10-03T16:44:42.418Z,101217.81
2022-10-03T16:47:09.904Z,101203.44
2022-10-03T16:50:13.592Z,101199.91
2022-10-03T16:52:56.797Z,101204.66
2022-10-03T16:55:39.060Z,101198.56
2022-10-03T16:58:10.610Z,101198.00
2022-10-03T17:01:26.240Z,101200.91
2022-10-03T17:03:59.935Z,101195.88
2022-10-03T17:06:33.189Z,101205.50
2022-10-03T17:09:07.754Z,101197.84
2022-10-03T17:11:38.374Z,101198.84
2022-10-03T17:14:08.583Z,101192.06
2022-10-03T17:16:47.583Z,101201.66
2022-10-03T17:19:27.001Z,101199.88
2022-10-03T17:22:00.419Z,101200.91
2022-10-03T17:24:45.306Z,101201.19
2022-10-03T17:27:36.659Z,101197.94
2022-10-03T17:30:25.028Z,101191.03
2022-10-03T17:33:03.653Z,101202.94
2022-10-03T17:35:52.506Z,101192.03
2022-10-03T17:38:49.467Z,101191.47
2022-10-03T17:41:24.448Z,101201.56
2022-10-03T17:44:12.101Z,101199.19
2022-10-03T17:46:51.577Z,101201.22
2022-10-03T17:49:23.773Z,101205.72
2022-10-03T17:51:52.948Z,101199.84
2022-10-03T17:54:29.653Z,101210.16
2022-10-03T17:57:38.518Z,101208.59
2022-10-03T18:00:18.994Z,101211.56
2022-10-03T18:03:01.476Z,101224.31
2022-10-03T18:05:38.997Z,101225.28
2022-10-03T18:08:14.231Z,101218.47
2022-10-03T18:10:49.236Z,101228.31
2022-10-03T18:13:24.661Z,101233.72
2022-10-03T18:16:21.099Z,101233.81
2022-10-03T18:18:47.736Z,101235.56
2022-10-03T18:21:17.515Z,101234.81
2022-10-03T18:24:21.678Z,101234.00
2022-10-03T18:27:11.651Z,101233.41
2022-10-03T18:30:02.159Z,101229.47
2022-10-03T18:32:32.554Z,101233.75
2022-10-03T18:35:22.238Z,101241.56
2022-10-03T18:38:08.211Z,101226.19
2022-10-03T18:40:44.889Z,101231.75
2022-10-03T18:43:49.279Z,101230.19
2022-10-03T18:46:42.683Z,101236.56
2022-10-03T18:49:36.021Z,101227.91
2022-10-03T18:52:25.417Z,101222.00
2022-10-03T18:55:03.745Z,101229.94
2022-10-03T18:57:54.248Z,101227.75
2022-10-03T19:00:26.572Z,101227.84
2022-10-03T19:02:58.998Z,101234.06
2022-10-03T19:05:33.288Z,101230.78
2022-10-03T19:08:10.253Z,101232.59
2022-10-03T19:10:50.855Z,101236.13
2022-10-03T19:13:45.591Z,101237.91
2022-10-03T19:16:30.794Z,101237.91
2022-10-03T19:19:12.383Z,101238.25
2022-10-03T19:21:41.712Z,101239.25
2022-10-03T19:24:53.347Z,101247.06
2022-10-03T19:27:38.962Z,101244.69
2022-10-03T19:30:09.423Z,101235.03
2022-10-03T19:32:53.929Z,101238.56
2022-10-03T19:35:23.013Z,101238.56
2022-10-03T19:37:57.394Z,101245.88
2022-10-03T19:40:33.007Z,101241.59
2022-10-03T19:43:32.081Z,101237.22
2022-10-03T19:46:36.050Z,101252.84
2022-10-03T19:49:05.721Z,101245.13
2022-10-03T19:51:35.276Z,101256.38
2022-10-03T19:54:11.433Z,101253.88
2022-10-03T19:56:38.284Z,101253.97
2022-10-03T19:59:12.622Z,101263.53
2022-10-03T20:01:47.397Z,101252.19
2022-10-03T20:04:18.977Z,101246.22
2022-10-03T20:06:49.872Z,101247.91
2022-10-03T20:10:00.994Z,101249.69
2022-10-03T20:12:31.337Z,101248.06
2022-10-03T20:15:05.476Z,101243.00
2022-10-03T20:17:33.141Z,101243.00
2022-10-03T20:20:07.839Z,101239.03
2022-10-03T20:22:41.793Z,101235.50
2022-10-03T20:25:26.469Z,101231.91
2022-10-03T20:28:00.938Z,101238.13
2022-10-03T20:30:39.961Z,101235.44
2022-10-03T20:33:10.246Z,101231.91
2022-10-03T20:35:45.997Z,101236.38
2022-10-03T20:38:28.539Z,101243.09
2022-10-03T20:41:15.540Z,101242.34
2022-10-03T20:44:23.726Z,101237.97
2022-10-03T20:46:57.768Z,101243.16
2022-10-03T20:49:37.081Z,101235.44
2022-10-03T20:52:07.403Z,101244.03
2022-10-03T20:54:54.303Z,101241.47
2022-10-03T20:57:26.974Z,101240.66
2022-10-03T21:00:11.611Z,101238.97
2022-10-03T21:02:38.160Z,101257.81
2022-10-03T21:05:11.163Z,101250.81
2022-10-03T21:07:43.562Z,101257.88
2022-10-03T21:10:32.976Z,101257.06
2022-10-03T21:13:08.892Z,101261.25
2022-10-03T21:16:16.068Z,101252.44
2022-10-03T21:18:47.614Z,101248.97
2022-10-03T21:21:27.856Z,101251.59
2022-10-03T21:24:12.975Z,101253.28
2022-10-03T21:26:47.663Z,101254.03
2022-10-03T21:29:15.806Z,101248.91
2022-10-03T21:32:05.477Z,101250.66
2022-10-03T21:34:45.234Z,101254.13
2022-10-03T21:37:16.888Z,101252.19
2022-10-03T21:39:56.652Z,101259.84
2022-10-03T21:42:40.790Z,101246.16
2022-10-03T21:45:22.218Z,101246.16
2022-10-03T21:48:01.313Z,101241.94
2022-10-03T21:50:31.794Z,101242.69
2022-10-03T21:53:18.708Z,101238.31
2022-10-03T21:55:53.031Z,101240.06
2022-10-03T21:58:38.961Z,101233.34
2022-10-03T22:01:29.869Z,101233.44
2022-10-03T22:04:11.342Z,101239.41
2022-10-03T22:07:35.903Z,101247.38
2022-10-03T22:10:03.676Z,101238.88
2022-10-03T22:12:40.440Z,101233.00
2022-10-03T22:15:19.720Z,101232.41
2022-10-03T22:17:57.840Z,101233.44
2022-10-03T22:20:32.944Z,101241.31
2022-10-03T22:23:14.014Z,101231.03
2022-10-03T22:26:02.672Z,101248.34
2022-10-03T22:28:52.249Z,101243.25
2022-10-03T22:31:51.412Z,101248.00
2022-10-03T22:34:42.918Z,101244.72
2022-10-03T22:37:10.007Z,101249.03
2022-10-03T22:39:37.083Z,101248.16
2022-10-03T22:42:04.642Z,101236.06
2022-10-03T22:44:35.038Z,101240.19
2022-10-03T22:47:11.099Z,101239.13
2022-10-03T22:49:45.110Z,101238.84
2022-10-03T22:52:21.305Z,101240.53
2022-10-03T22:54:49.697Z,101239.63
2022-10-03T22:57:17.083Z,101230.97
2022-10-03T22:59:51.929Z,101223.38
2022-10-03T23:02:25.589Z,101221.88
2022-10-03T23:04:57.503Z,101226.25
2022-10-03T23:07:56.200Z,101222.88
2022-10-03T23:10:25.435Z,101218.91
2022-10-03T23:13:04.398Z,101220.00
2022-10-03T23:15:34.263Z,101223.44
2022-10-03T23:18:39.057Z,101225.81
2022-10-03T23:21:08.775Z,101235.56
2022-10-03T23:24:20.474Z,101228.88
2022-10-03T23:27:24.579Z,101228.13
2022-10-03T23:30:12.962Z,101229.75
2022-10-03T23:32:48.556Z,101237.41
2022-10-03T23:35:17.769Z,101237.13
2022-10-03T23:37:48.926Z,101235.56
2022-10-03T23:40:20.608Z,101226.22
2022-10-03T23:42:59.506Z,101224.44
2022-10-03T23:45:29.648Z,101227.13
2022-10-03T23:48:07.401Z,101233.16
2022-10-03T23:50:42.862Z,101222.44
2022-10-03T23:53:32.171Z,101228.09
2022-10-03T23:56:02.545Z,101226.41
2022-10-03T23:58:32.515Z,101222.63
